Terminal Aerodrome Forecast
Issued by NWS

Home | Current Version | Previous Version | Text Only | Print | Product List | Glossary On
Versions: 1 2 3 4 5 6 7 8 9 10 11 12 13 14 15
180
FTAK31 PAJN 241133
TAFAKT
TAF
PAKT 241133Z 2412/2512 14010KT 6SM -RA BR BKN015 OVC030
     FM242000 14015G25KT P6SM VCSH SCT015 SCT025 OVC040
      WS020/14035KT
     FM250300 14020G30KT P6SM -RA BKN025 OVC040 WS020/15050KT
     FM250900 14020G30KT 5SM RA BR BKN015 OVC025
      AMD LTD TO CLD VIS AND WIND 2412/2415=

USA.gov is the U.S. government's official web portal to all federal, state and local government web resources and services.